Time;durP1;ratioP1;P1;durP2;ratioP2;P2;SDS_P1;SDS_P2;PMS_P1;PMS_P2;Temp;Humidity;BMP_temperature;BMP_pressure;BME280_temperature;BME280_humidity;BME280_pressure;Samples;Min_cycle;Max_cycle;Signal;HPM_P1;HPM_P2
2023/10/27 00:02:07;;;;;;;;;11.25;9.00;;;;;10.62;82.80;97567.13;5076250;28;9563;-59
2023/10/27 00:04:35;;;;;;;;;11.00;8.00;;;;;10.62;82.92;97574.31;5076305;28;8874;-57
2023/10/27 00:07:04;;;;;;;;;12.50;11.00;;;;;10.61;83.00;97568.13;5076324;28;8816;-58
2023/10/27 00:09:35;;;;;;;;;15.00;10.00;;;;;10.61;82.82;97570.78;5076334;28;9545;-59
2023/10/27 00:12:03;;;;;;;;;12.00;10.00;;;;;10.60;82.99;97563.81;5076114;28;8812;-57
2023/10/27 00:14:31;;;;;;;;;9.67;9.00;;;;;10.57;82.69;97566.84;5076868;28;8840;-60
2023/10/27 00:16:59;;;;;;;;;13.00;12.00;;;;;10.54;82.94;97564.53;5076075;28;8864;-57
2023/10/27 00:19:27;;;;;;;;;8.50;7.00;;;;;10.50;83.11;97567.75;5076394;28;9486;-59
2023/10/27 00:21:55;;;;;;;;;11.50;9.25;;;;;10.45;83.20;97567.44;5075881;28;8832;-60
2023/10/27 00:24:24;;;;;;;;;12.25;12.00;;;;;10.40;83.14;97567.97;5075896;28;8816;-57
2023/10/27 00:26:51;;;;;;;;;9.50;9.50;;;;;10.36;83.38;97569.38;5075972;28;8866;-56
2023/10/27 00:29:18;;;;;;;;;15.00;14.25;;;;;10.32;83.39;97565.41;5076868;28;8823;-60
2023/10/27 00:31:46;;;;;;;;;11.75;10.00;;;;;10.27;83.45;97562.47;5076256;28;8839;-57
2023/10/27 00:34:14;;;;;;;;;10.50;10.00;;;;;10.24;83.14;97565.47;5075854;28;8864;-59
2023/10/27 00:36:42;;;;;;;;;14.25;14.25;;;;;10.20;84.07;97566.84;5076270;28;8862;-57
2023/10/27 00:39:10;;;;;;;;;11.00;10.50;;;;;10.19;84.15;97570.50;5075692;28;8848;-58
2023/10/27 00:41:38;;;;;;;;;11.50;10.00;;;;;10.17;83.75;97569.03;5075463;28;8836;-58
2023/10/27 00:44:06;;;;;;;;;17.00;16.50;;;;;10.17;83.74;97574.34;5075492;28;8852;-60
2023/10/27 00:46:34;;;;;;;;;12.75;12.00;;;;;10.16;83.99;97568.19;5075434;28;8831;-57
2023/10/27 00:49:01;;;;;;;;;7.00;6.00;;;;;10.15;83.75;97566.53;5075702;28;8835;-57
2023/10/27 00:51:29;;;;;;;;;15.50;15.00;;;;;10.16;83.61;97564.72;5075501;28;8828;-59
2023/10/27 00:53:57;;;;;;;;;12.75;11.00;;;;;10.17;83.94;97561.84;5075712;28;8832;-57
2023/10/27 00:56:24;;;;;;;;;12.00;10.00;;;;;10.16;83.76;97557.53;5075828;28;8828;-57
2023/10/27 00:58:52;;;;;;;;;12.00;11.50;;;;;10.17;83.36;97559.19;5075371;28;8838;-60
2023/10/27 01:01:20;;;;;;;;;14.00;12.00;;;;;10.17;83.75;97561.03;5075754;28;8836;-59
2023/10/27 01:03:48;;;;;;;;;15.00;13.00;;;;;10.15;83.55;97561.22;5075550;28;9454;-59
2023/10/27 01:06:15;;;;;;;;;6.00;5.00;;;;;10.15;83.76;97565.69;5074855;28;8840;-59
2023/10/27 01:08:43;;;;;;;;;7.50;6.00;;;;;10.12;83.64;97556.25;5075510;28;8816;-60
2023/10/27 01:11:11;;;;;;;;;8.75;6.25;;;;;10.09;83.82;97550.47;5075449;28;8832;-60
2023/10/27 01:13:38;;;;;;;;;10.50;10.50;;;;;10.03;83.45;97554.63;5074890;28;8835;-58
2023/10/27 01:16:06;;;;;;;;;11.50;11.00;;;;;9.97;83.81;97555.34;5075570;28;9625;-58
2023/10/27 01:18:33;;;;;;;;;4.50;4.25;;;;;9.92;83.78;97555.03;5074483;28;9548;-59
2023/10/27 01:21:02;;;;;;;;;13.00;11.50;;;;;9.84;83.84;97554.25;5074956;28;8824;-59
2023/10/27 01:23:29;;;;;;;;;10.50;8.75;;;;;9.78;84.15;97558.44;5075018;28;8820;-58
2023/10/27 01:25:57;;;;;;;;;12.75;11.50;;;;;9.71;84.21;97556.69;5074959;28;8831;-59
2023/10/27 01:28:25;;;;;;;;;9.75;9.25;;;;;9.65;84.52;97557.38;5074814;28;8820;-59
2023/10/27 01:30:52;;;;;;;;;12.75;12.75;;;;;9.59;84.79;97566.03;5074587;28;8965;-58
2023/10/27 01:33:21;;;;;;;;;10.00;9.75;;;;;9.53;84.86;97564.06;5075700;28;8820;-58
2023/10/27 01:35:49;;;;;;;;;10.00;9.25;;;;;9.50;85.15;97564.41;5074501;28;8831;-57
2023/10/27 01:38:16;;;;;;;;;13.00;12.00;;;;;9.45;85.22;97564.94;5075349;28;8820;-59
2023/10/27 01:40:44;;;;;;;;;12.50;11.75;;;;;9.42;84.76;97561.81;5074746;28;8844;-60
2023/10/27 01:43:12;;;;;;;;;10.00;9.00;;;;;9.39;85.25;97557.66;5074985;28;9505;-58
2023/10/27 01:45:39;;;;;;;;;8.00;8.00;;;;;9.36;85.43;97552.72;5075374;28;8933;-59
2023/10/27 01:48:07;;;;;;;;;9.00;9.00;;;;;9.37;84.64;97543.75;5074720;28;8898;-59
2023/10/27 01:50:34;;;;;;;;;6.00;5.00;;;;;9.40;85.17;97540.72;5074573;28;8835;-57
2023/10/27 01:53:02;;;;;;;;;7.50;7.00;;;;;9.42;85.13;97541.38;5074769;28;8872;-60
2023/10/27 01:55:30;;;;;;;;;9.25;7.50;;;;;9.43;84.62;97547.53;5074741;28;8836;-59
2023/10/27 01:57:57;;;;;;;;;6.50;4.00;;;;;9.41;84.57;97542.38;5074754;28;8873;-57
2023/10/27 02:00:25;;;;;;;;;11.00;9.00;;;;;9.42;85.02;97544.03;5074997;28;8839;-57
2023/10/27 02:02:53;;;;;;;;;10.50;9.50;;;;;9.40;85.02;97538.06;5074674;28;8832;-57
2023/10/27 02:05:20;;;;;;;;;4.50;3.75;;;;;9.38;85.22;97542.72;5074378;28;8844;-57
2023/10/27 02:07:48;;;;;;;;;9.75;7.50;;;;;9.37;84.51;97543.75;5074995;28;9521;-57
2023/10/27 02:10:16;;;;;;;;;11.50;9.50;;;;;9.37;84.59;97540.25;5074588;28;8824;-59
2023/10/27 02:12:45;;;;;;;;;11.00;9.00;;;;;9.36;85.01;97544.75;5074403;28;8901;-57
2023/10/27 02:15:12;;;;;;;;;8.00;6.50;;;;;9.39;84.63;97547.03;5074597;28;8844;-59
2023/10/27 02:17:40;;;;;;;;;6.75;6.25;;;;;9.39;84.76;97536.41;5074617;28;8838;-59
2023/10/27 02:20:07;;;;;;;;;9.50;7.00;;;;;9.42;84.55;97538.72;5074712;28;8839;-57
2023/10/27 02:22:36;;;;;;;;;8.00;8.00;;;;;9.42;84.55;97544.03;5074720;28;8827;-58
2023/10/27 02:25:04;;;;;;;;;4.25;3.75;;;;;9.41;84.30;97537.06;5074602;28;8866;-59
2023/10/27 02:27:31;;;;;;;;;4.00;4.00;;;;;9.41;84.95;97529.09;5074195;28;8852;-56
2023/10/27 02:29:59;;;;;;;;;12.00;10.00;;;;;9.40;84.58;97524.78;5074197;28;8854;-58
2023/10/27 02:32:27;;;;;;;;;8.00;6.00;;;;;9.41;84.52;97525.63;5074329;28;8851;-57
2023/10/27 02:34:55;;;;;;;;;4.50;4.00;;;;;9.40;84.91;97526.59;5074345;28;8844;-58
2023/10/27 02:37:23;;;;;;;;;2.50;1.50;;;;;9.41;84.38;97531.75;5074472;28;8844;-57
2023/10/27 02:39:50;;;;;;;;;9.50;8.00;;;;;9.44;84.40;97525.25;5074306;28;8836;-60
2023/10/27 02:42:18;;;;;;;;;9.75;8.75;;;;;9.46;84.73;97518.78;5074390;28;9720;-59
2023/10/27 02:44:46;;;;;;;;;6.50;5.50;;;;;9.50;84.48;97525.38;5074187;28;8853;-58
2023/10/27 02:47:14;;;;;;;;;6.50;6.50;;;;;9.52;84.55;97520.75;5074850;28;9557;-58
2023/10/27 02:49:42;;;;;;;;;7.00;6.00;;;;;9.55;84.32;97520.38;5077185;28;8836;-56
2023/10/27 02:52:10;;;;;;;;;11.75;9.25;;;;;9.58;84.16;97520.03;5077593;28;8828;-57
2023/10/27 02:54:37;;;;;;;;;7.50;7.50;;;;;9.61;83.79;97511.72;5077755;28;8947;-56
2023/10/27 02:57:05;;;;;;;;;1.00;1.00;;;;;9.63;83.83;97516.88;5078081;28;8897;-56
2023/10/27 02:59:33;;;;;;;;;5.50;5.50;;;;;9.63;84.21;97515.03;5077644;28;9550;-58
2023/10/27 03:02:01;;;;;;;;;8.50;7.00;;;;;9.65;84.41;97510.34;5077707;28;8855;-59
2023/10/27 03:04:29;;;;;;;;;9.50;8.75;;;;;9.67;84.09;97504.88;5077441;28;8835;-59
2023/10/27 03:06:57;;;;;;;;;9.50;9.00;;;;;9.66;84.37;97498.72;5077506;28;8912;-58
2023/10/27 03:09:25;;;;;;;;;7.50;7.00;;;;;9.65;83.77;97502.38;5077376;28;8816;-59
2023/10/27 03:11:52;;;;;;;;;10.00;9.00;;;;;9.66;84.18;97498.72;5078151;28;8824;-59
2023/10/27 03:14:20;;;;;;;;;7.25;6.50;;;;;9.65;84.08;97493.59;5077693;28;8852;-59
2023/10/27 03:16:47;;;;;;;;;5.50;5.50;;;;;9.65;84.33;97490.94;5078166;28;8914;-59
2023/10/27 03:19:15;;;;;;;;;5.00;4.00;;;;;9.66;84.49;97488.09;5077707;28;8832;-59
2023/10/27 03:21:43;;;;;;;;;6.50;6.50;;;;;9.68;84.13;97480.78;5077475;28;8816;-56
2023/10/27 03:24:10;;;;;;;;;7.75;7.25;;;;;9.71;84.13;97483.09;5077636;28;8832;-59
2023/10/27 03:26:38;;;;;;;;;7.00;7.00;;;;;9.72;83.76;97474.09;5077361;28;8913;-60
2023/10/27 03:29:06;;;;;;;;;8.00;7.00;;;;;9.73;83.99;97473.09;5077196;28;8832;-57
2023/10/27 03:31:32;;;;;;;;;9.75;9.00;;;;;9.75;83.78;97472.94;5077082;28;8816;-59
2023/10/27 03:34:00;;;;;;;;;8.75;7.00;;;;;9.78;83.90;97475.25;5077756;28;8824;-59
2023/10/27 03:36:28;;;;;;;;;8.50;7.25;;;;;9.80;83.99;97481.22;5076641;28;8836;-58
2023/10/27 03:38:56;;;;;;;;;9.25;9.25;;;;;9.81;84.26;97470.38;5077069;28;8862;-58
2023/10/27 03:41:23;;;;;;;;;9.00;8.50;;;;;9.82;83.84;97464.09;5076891;28;8816;-57
2023/10/27 03:43:51;;;;;;;;;6.50;5.75;;;;;9.83;84.06;97462.22;5077410;28;9473;-58
2023/10/27 03:46:18;;;;;;;;;7.00;7.00;;;;;9.84;84.02;97455.91;5076742;28;8840;-59
2023/10/27 03:48:47;;;;;;;;;11.00;10.00;;;;;9.83;83.72;97463.06;5077008;28;9525;-59
2023/10/27 03:51:15;;;;;;;;;10.00;10.00;;;;;9.85;83.94;97463.72;5076849;28;8828;-58
2023/10/27 03:53:43;;;;;;;;;9.00;9.00;;;;;9.85;83.46;97462.88;5076520;28;8910;-59
2023/10/27 03:56:11;;;;;;;;;10.00;10.00;;;;;9.84;83.98;97461.22;5076322;28;8828;-59
2023/10/27 03:58:38;;;;;;;;;10.50;8.50;;;;;9.83;84.07;97457.75;5076134;28;8832;-58
2023/10/27 04:01:15;;;;;;;;;8.00;6.25;;;;;9.82;83.99;97453.44;5076367;28;8840;-57
2023/10/27 04:03:42;;;;;;;;;12.50;10.50;;;;;9.83;83.87;97464.88;5076522;28;8832;-58
2023/10/27 04:06:10;;;;;;;;;10.50;9.00;;;;;9.83;84.14;97459.56;5076014;28;8844;-58
2023/10/27 04:08:37;;;;;;;;;10.00;9.00;;;;;9.84;83.86;97455.91;5076043;28;8828;-57
2023/10/27 04:11:05;;;;;;;;;11.00;10.00;;;;;9.85;84.08;97455.75;5076810;28;8834;-57
2023/10/27 04:13:34;;;;;;;;;6.00;6.00;;;;;9.86;83.70;97460.03;5076065;28;8840;-57
2023/10/27 04:16:01;;;;;;;;;6.75;6.00;;;;;9.86;83.80;97448.59;5075925;28;8816;-59
2023/10/27 04:18:29;;;;;;;;;7.50;7.50;;;;;9.86;83.77;97449.41;5076514;28;8824;-59
2023/10/27 04:20:57;;;;;;;;;9.75;6.75;;;;;9.86;83.87;97451.25;5075845;28;8820;-59
2023/10/27 04:23:24;;;;;;;;;9.50;7.50;;;;;9.85;83.81;97447.75;5075755;28;8828;-59
2023/10/27 04:25:51;;;;;;;;;10.00;10.00;;;;;9.85;83.94;97441.59;5076220;28;8846;-59
2023/10/27 04:28:19;;;;;;;;;10.25;9.25;;;;;9.86;84.05;97444.09;5075852;28;8867;-59
2023/10/27 04:30:50;;;;;;;;;9.50;7.50;;;;;9.87;83.89;97444.94;5075606;28;8824;-58
2023/10/27 04:33:17;;;;;;;;;6.75;6.25;;;;;9.85;83.92;97445.09;5075721;28;8843;-57
2023/10/27 04:35:45;;;;;;;;;7.00;6.25;;;;;9.87;83.96;97456.38;5075610;28;8828;-59
2023/10/27 04:38:15;;;;;;;;;11.50;9.75;;;;;9.86;84.13;97454.72;5075465;28;8840;-57
2023/10/27 04:40:44;;;;;;;;;6.00;4.00;;;;;9.86;84.00;97452.06;5075472;28;8842;-59
2023/10/27 04:43:12;;;;;;;;;7.50;7.50;;;;;9.88;84.16;97451.91;5075958;28;8843;-57
2023/10/27 04:45:40;;;;;;;;;9.75;9.50;;;;;9.88;84.27;97458.03;5075397;28;8848;-59
2023/10/27 04:48:07;;;;;;;;;7.00;7.00;;;;;9.90;84.01;97449.88;5075055;28;8859;-58
2023/10/27 04:50:36;;;;;;;;;7.00;7.00;;;;;9.91;84.23;97448.88;5075468;28;8913;-58
2023/10/27 04:53:03;;;;;;;;;14.25;10.25;;;;;9.92;84.09;97454.03;5075032;28;8836;-59
2023/10/27 04:55:31;;;;;;;;;13.00;9.75;;;;;9.93;83.84;97452.22;5075139;28;9524;-59
2023/10/27 04:57:59;;;;;;;;;11.50;9.50;;;;;9.94;83.92;97452.00;5074547;28;8824;-57
2023/10/27 05:00:27;;;;;;;;;10.25;8.00;;;;;9.95;83.80;97452.84;5074683;28;8848;-56
2023/10/27 05:02:55;;;;;;;;;11.75;10.00;;;;;9.96;83.84;97455.31;5074746;28;8828;-60
2023/10/27 05:05:23;;;;;;;;;10.50;10.00;;;;;9.99;83.70;97456.78;5074419;28;8824;-59
2023/10/27 05:07:51;;;;;;;;;6.25;4.00;;;;;9.99;83.51;97456.78;5074777;28;9018;-58
2023/10/27 05:10:18;;;;;;;;;10.50;9.00;;;;;10.01;84.03;97463.56;5073810;28;8828;-59
2023/10/27 05:12:46;;;;;;;;;8.00;7.00;;;;;10.01;83.45;97454.78;5074061;28;8836;-60
2023/10/27 05:15:13;;;;;;;;;8.00;7.25;;;;;10.02;83.75;97445.81;5073336;28;8825;-60
2023/10/27 05:17:42;;;;;;;;;9.00;8.50;;;;;10.03;84.08;97448.28;5073681;28;8824;-57
2023/10/27 05:20:10;;;;;;;;;8.25;8.25;;;;;10.03;84.05;97456.28;5073271;28;8847;-58
2023/10/27 05:22:38;;;;;;;;;7.25;6.75;;;;;10.04;83.49;97452.63;5072963;28;8883;-57
2023/10/27 05:25:06;;;;;;;;;9.00;7.00;;;;;10.04;83.92;97443.81;5073080;28;8829;-59
2023/10/27 05:27:34;;;;;;;;;7.75;6.50;;;;;10.04;83.71;97449.13;5072977;28;8867;-58
2023/10/27 05:30:02;;;;;;;;;10.25;8.50;;;;;10.03;84.00;97444.81;5073604;28;8839;-60
2023/10/27 05:32:29;;;;;;;;;9.00;7.75;;;;;10.03;84.11;97445.63;5074099;28;9544;-60
2023/10/27 05:34:57;;;;;;;;;7.50;7.50;;;;;10.04;83.60;97439.34;5074376;28;8851;-59
2023/10/27 05:37:26;;;;;;;;;10.00;9.00;;;;;10.03;84.13;97445.63;5074005;28;8832;-57
2023/10/27 05:39:54;;;;;;;;;8.50;8.00;;;;;10.05;83.59;97443.66;5074577;28;9486;-59
2023/10/27 05:42:22;;;;;;;;;9.75;9.00;;;;;10.05;83.53;97453.44;5074186;28;8850;-60
2023/10/27 05:44:49;;;;;;;;;9.00;6.75;;;;;10.05;83.76;97448.97;5074219;28;8957;-58
2023/10/27 05:47:19;;;;;;;;;5.00;4.50;;;;;10.07;83.79;97451.41;5073937;28;8823;-60
2023/10/27 05:49:46;;;;;;;;;9.50;9.25;;;;;10.08;83.52;97445.13;5073109;28;8839;-58
2023/10/27 05:52:14;;;;;;;;;8.25;7.50;;;;;10.08;83.46;97445.94;5073145;28;8902;-58
2023/10/27 05:54:43;;;;;;;;;8.00;8.00;;;;;10.09;83.60;97441.47;5072393;28;8913;-57
2023/10/27 05:57:15;;;;;;;;;9.00;9.00;;;;;10.08;83.31;97448.59;5072414;28;9533;-57
2023/10/27 05:59:42;;;;;;;;;7.00;6.75;;;;;10.10;83.57;97456.41;5072313;28;8954;-58
2023/10/27 06:02:10;;;;;;;;;8.50;6.50;;;;;10.10;83.81;97446.56;5071920;28;8840;-58
2023/10/27 06:04:42;;;;;;;;;6.50;6.50;;;;;10.11;83.89;97448.22;5072148;28;8824;-58
2023/10/27 06:07:15;;;;;;;;;4.00;3.75;;;;;10.12;83.49;97455.22;5071868;28;8831;-58
2023/10/27 06:09:43;;;;;;;;;7.00;6.50;;;;;10.13;84.03;97451.53;5071316;28;8876;-58
2023/10/27 06:12:11;;;;;;;;;6.00;6.00;;;;;10.15;83.68;97456.66;5071978;28;8897;-59
2023/10/27 06:14:44;;;;;;;;;9.00;7.00;;;;;10.15;83.57;97456.66;5072098;28;8840;-60
2023/10/27 06:17:12;;;;;;;;;8.00;6.50;;;;;10.15;83.72;97457.50;5072299;28;8828;-57
2023/10/27 06:19:39;;;;;;;;;7.50;6.00;;;;;10.16;83.38;97455.69;5072585;28;9543;-58
2023/10/27 06:22:09;;;;;;;;;8.00;6.50;;;;;10.17;83.86;97454.66;5073614;28;8827;-60
2023/10/27 06:24:36;;;;;;;;;11.50;10.00;;;;;10.19;83.52;97461.47;5076704;28;8974;-58
2023/10/27 06:27:05;;;;;;;;;7.50;7.00;;;;;10.20;83.69;97457.81;5076667;28;8831;-57
2023/10/27 06:29:34;;;;;;;;;9.50;9.25;;;;;10.21;83.71;97461.28;5076340;28;9509;-60
2023/10/27 06:32:03;;;;;;;;;10.50;9.25;;;;;10.22;83.68;97460.25;5077015;28;8836;-59
2023/10/27 06:34:31;;;;;;;;;7.75;6.25;;;;;10.23;83.61;97468.06;5076983;28;8839;-60
2023/10/27 06:36:59;;;;;;;;;9.50;7.50;;;;;10.23;83.34;97457.44;5076829;28;8904;-58
2023/10/27 06:39:28;;;;;;;;;9.00;7.50;;;;;10.25;83.47;97470.56;5076799;28;8847;-57
2023/10/27 06:41:56;;;;;;;;;7.00;6.00;;;;;10.26;83.88;97470.34;5076407;28;8847;-60
2023/10/27 06:44:24;;;;;;;;;4.50;4.50;;;;;10.26;83.26;97467.69;5076856;28;8851;-59
2023/10/27 06:46:53;;;;;;;;;3.50;3.00;;;;;10.28;83.21;97470.19;5076501;28;8836;-57
2023/10/27 06:49:21;;;;;;;;;6.50;6.00;;;;;10.29;83.38;97467.34;5076664;28;8848;-59
2023/10/27 06:51:49;;;;;;;;;9.75;8.00;;;;;10.30;83.21;97466.34;5077030;28;8839;-57
2023/10/27 06:54:17;;;;;;;;;7.00;6.00;;;;;10.31;83.36;97472.50;5076365;28;8828;-57
2023/10/27 06:56:44;;;;;;;;;6.00;4.50;;;;;10.31;83.44;97473.31;5076781;28;8824;-59
2023/10/27 06:59:12;;;;;;;;;12.00;8.00;;;;;10.33;83.75;97467.81;5076813;28;8843;-58
2023/10/27 07:01:40;;;;;;;;;11.75;9.75;;;;;10.34;83.12;97470.31;5076569;28;8824;-59
2023/10/27 07:04:10;;;;;;;;;9.00;8.50;;;;;10.34;83.37;97470.31;5076638;28;9833;-57
2023/10/27 07:06:39;;;;;;;;;8.00;8.00;;;;;10.36;83.49;97473.59;5075631;28;9634;-57
2023/10/27 07:09:07;;;;;;;;;6.50;6.00;;;;;10.37;83.05;97469.94;5076388;28;8860;-59
2023/10/27 07:11:35;;;;;;;;;9.00;7.00;;;;;10.38;83.74;97468.91;5076795;28;8816;-57
2023/10/27 07:14:03;;;;;;;;;6.50;6.00;;;;;10.39;83.83;97470.56;5076665;28;8821;-59
2023/10/27 07:16:31;;;;;;;;;7.50;7.50;;;;;10.42;83.50;97472.03;5076469;28;8824;-56
2023/10/27 07:18:59;;;;;;;;;6.25;6.00;;;;;10.43;83.46;97474.53;5076479;28;8824;-59
2023/10/27 07:21:26;;;;;;;;;6.25;4.50;;;;;10.44;82.92;97470.84;5076352;28;8852;-60
2023/10/27 07:23:54;;;;;;;;;10.50;6.75;;;;;10.47;83.03;97475.00;5076730;28;8832;-59
2023/10/27 07:26:22;;;;;;;;;8.25;8.25;;;;;10.49;83.58;97473.81;5075977;28;8828;-59
2023/10/27 07:28:50;;;;;;;;;6.50;6.00;;;;;10.51;83.28;97482.44;5075325;28;8832;-59
2023/10/27 07:31:18;;;;;;;;;7.50;6.00;;;;;10.53;83.50;97482.22;5075098;28;8840;-57
2023/10/27 07:33:46;;;;;;;;;7.25;6.00;;;;;10.54;83.64;97482.06;5073766;28;8828;-59
2023/10/27 07:36:14;;;;;;;;;7.00;6.00;;;;;10.55;83.18;97473.06;5074959;28;8966;-57
2023/10/27 07:38:42;;;;;;;;;6.50;6.00;;;;;10.59;83.40;97485.00;5075142;28;8847;-60
2023/10/27 07:41:10;;;;;;;;;4.50;4.00;;;;;10.60;83.13;97481.34;5075007;28;8902;-59
2023/10/27 07:43:39;;;;;;;;;8.00;6.75;;;;;10.63;82.95;97477.47;5075199;28;8832;-58
2023/10/27 07:46:07;;;;;;;;;9.75;8.50;;;;;10.65;83.39;97481.63;5075840;28;8848;-57
2023/10/27 07:48:34;;;;;;;;;8.50;7.50;;;;;10.66;83.27;97477.94;5075173;28;8852;-57
2023/10/27 07:51:03;;;;;;;;;4.50;3.00;;;;;10.70;83.01;97479.22;5075320;28;8828;-58
2023/10/27 07:53:31;;;;;;;;;4.50;4.50;;;;;10.72;83.28;97477.22;5075288;28;8839;-59
2023/10/27 07:55:59;;;;;;;;;9.50;8.00;;;;;10.73;82.92;97480.69;5075327;28;8831;-57
2023/10/27 07:58:27;;;;;;;;;6.50;6.50;;;;;10.77;83.00;97479.31;5076111;28;8828;-57
2023/10/27 08:00:55;;;;;;;;;7.25;7.25;;;;;10.77;82.89;97479.31;5075098;28;8929;-59
2023/10/27 08:03:23;;;;;;;;;6.50;6.00;;;;;10.79;82.94;97486.13;5075335;28;8836;-57
2023/10/27 08:05:52;;;;;;;;;6.25;4.00;;;;;10.82;83.12;97487.56;5075321;28;8869;-58
2023/10/27 08:08:20;;;;;;;;;10.00;9.50;;;;;10.84;82.67;97485.56;5075276;28;8824;-60
2023/10/27 08:10:49;;;;;;;;;4.50;3.75;;;;;10.84;83.20;97478.41;5074760;28;8867;-60
2023/10/27 08:13:19;;;;;;;;;9.00;8.00;;;;;10.86;82.73;97480.88;5075420;28;8958;-59
2023/10/27 08:15:47;;;;;;;;;5.00;3.75;;;;;10.86;83.08;97481.69;5075762;28;8889;-58
2023/10/27 08:18:15;;;;;;;;;3.00;3.00;;;;;10.88;82.78;97481.50;5075446;28;8820;-59
2023/10/27 08:20:43;;;;;;;;;3.00;3.00;;;;;10.92;82.68;97485.47;5075360;28;8824;-59
2023/10/27 08:23:11;;;;;;;;;3.25;1.50;;;;;10.95;83.01;97480.59;5075401;28;8980;-59
2023/10/27 08:25:38;;;;;;;;;0.00;0.00;;;;;11.00;82.60;97478.19;5075092;28;8836;-60
2023/10/27 08:28:08;;;;;;;;;1.00;1.00;;;;;11.04;82.84;97483.97;5075027;28;8835;-60
2023/10/27 08:30:36;;;;;;;;;0.00;0.00;;;;;11.09;82.49;97486.94;5074282;28;8831;-58
2023/10/27 08:33:04;;;;;;;;;1.00;0.75;;;;;11.14;82.56;97484.53;5074320;28;8877;-58
2023/10/27 08:35:31;;;;;;;;;0.00;0.00;;;;;11.18;82.79;97485.81;5074320;28;8839;-56
2023/10/27 08:38:00;;;;;;;;;0.00;0.00;;;;;11.22;82.41;97487.91;5074285;28;8861;-56
2023/10/27 08:40:28;;;;;;;;;0.00;0.00;;;;;11.26;82.08;97483.03;5074771;28;8859;-57
2023/10/27 08:42:56;;;;;;;;;0.00;0.00;;;;;11.29;82.17;97488.81;5074726;28;8832;-55
2023/10/27 08:45:25;;;;;;;;;1.00;1.00;;;;;11.32;82.41;97477.81;5074911;28;8840;-56
2023/10/27 08:47:53;;;;;;;;;1.00;0.00;;;;;11.36;82.25;97478.25;5074877;28;9833;-58
2023/10/27 08:50:21;;;;;;;;;0.00;0.00;;;;;11.39;82.48;97481.34;5074367;28;8962;-56
2023/10/27 08:52:50;;;;;;;;;0.00;0.00;;;;;11.44;82.64;97478.16;5074728;28;8852;-56
2023/10/27 08:55:20;;;;;;;;;1.00;1.00;;;;;11.49;82.52;97484.56;5074474;28;8824;-57
2023/10/27 08:57:48;;;;;;;;;0.25;0.25;;;;;11.55;81.84;97485.63;5074802;28;8835;-57
2023/10/27 09:00:17;;;;;;;;;0.00;0.00;;;;;11.59;81.82;97485.09;5073896;28;8851;-56
2023/10/27 09:02:45;;;;;;;;;1.00;1.00;;;;;11.63;81.78;97483.72;5073883;28;8831;-58
2023/10/27 09:05:13;;;;;;;;;1.00;1.00;;;;;11.68;81.98;97480.50;5073728;28;8828;-58
2023/10/27 09:07:41;;;;;;;;;0.50;0.50;;;;;11.73;81.85;97481.56;5073603;28;9699;-58
2023/10/27 09:10:10;;;;;;;;;1.00;1.00;;;;;11.79;81.78;97474.66;5073307;28;8848;-56
2023/10/27 09:12:39;;;;;;;;;1.00;1.00;;;;;11.84;81.72;97482.91;5073449;28;8824;-55
2023/10/27 09:15:07;;;;;;;;;0.00;0.00;;;;;11.88;81.92;97478.84;5073295;28;8879;-58
2023/10/27 09:17:35;;;;;;;;;1.00;1.00;;;;;11.93;81.50;97479.09;5073635;28;9646;-58
2023/10/27 09:20:03;;;;;;;;;1.00;0.00;;;;;11.97;81.80;97483.03;5073594;28;8828;-56
2023/10/27 09:22:31;;;;;;;;;1.00;0.25;;;;;12.01;81.44;97479.81;5073601;28;8883;-56
2023/10/27 09:25:12;;;;;;;;;1.00;0.00;;;;;12.07;81.41;97479.03;5073947;28;8855;-57
2023/10/27 09:27:42;;;;;;;;;1.00;0.75;;;;;12.12;81.76;97484.59;5073825;28;8974;-58
2023/10/27 09:30:11;;;;;;;;;0.00;0.00;;;;;12.18;80.79;97482.03;5073565;28;9553;-58
2023/10/27 09:32:40;;;;;;;;;1.00;0.00;;;;;12.22;81.15;97488.59;5073565;28;8843;-57
2023/10/27 09:35:13;;;;;;;;;0.00;0.00;;;;;12.27;81.30;97478.19;5074240;28;8824;-57
2023/10/27 09:37:42;;;;;;;;;0.00;0.00;;;;;12.34;81.23;97487.06;5073705;28;8823;-56
2023/10/27 09:40:11;;;;;;;;;0.00;0.00;;;;;12.35;81.00;97488.72;5073986;28;8901;-55
2023/10/27 09:42:39;;;;;;;;;0.00;0.00;;;;;12.35;81.35;97483.38;5073798;28;8843;-59
2023/10/27 09:45:11;;;;;;;;;1.00;1.00;;;;;12.35;81.29;97483.38;5073752;28;8840;-56
2023/10/27 09:47:39;;;;;;;;;0.00;0.00;;;;;12.33;81.29;97479.25;5072835;28;8830;-56
2023/10/27 09:50:07;;;;;;;;;0.00;0.00;;;;;12.33;81.26;97489.94;5073080;28;8967;-58
2023/10/27 09:52:39;;;;;;;;;0.00;0.00;;;;;12.33;81.67;97484.59;5072673;28;8916;-58
2023/10/27 09:55:07;;;;;;;;;0.00;0.00;;;;;12.34;81.01;97489.75;5073355;28;8838;-58
2023/10/27 09:57:44;;;;;;;;;0.00;0.00;;;;;12.35;81.01;97477.22;5072758;28;9604;-58
2023/10/27 10:00:13;;;;;;;;;0.25;0.00;;;;;12.38;81.51;97471.50;5072956;28;8832;-56
2023/10/27 10:02:44;;;;;;;;;0.25;0.00;;;;;12.43;81.38;97487.75;5072795;28;8848;-59
2023/10/27 10:05:14;;;;;;;;;0.00;0.00;;;;;12.44;81.09;97487.56;5073364;28;8825;-56
2023/10/27 10:07:44;;;;;;;;;0.00;0.00;;;;;12.44;81.01;97484.88;5073018;28;8854;-57
2023/10/27 10:10:14;;;;;;;;;0.00;0.00;;;;;12.40;81.74;97485.47;5072398;28;8844;-56
2023/10/27 10:12:42;;;;;;;;;0.00;0.00;;;;;12.36;81.68;97485.03;5072472;28;8848;-58
2023/10/27 10:15:10;;;;;;;;;0.00;0.00;;;;;12.30;81.43;97480.47;5072827;28;8949;-59
2023/10/27 10:17:41;;;;;;;;;0.00;0.00;;;;;12.27;81.47;97491.53;5072574;28;8843;-57
2023/10/27 10:20:10;;;;;;;;;0.00;0.00;;;;;12.24;82.13;97486.56;5072903;28;9486;-57
2023/10/27 10:22:38;;;;;;;;;0.00;0.00;;;;;12.23;82.02;97484.09;5072179;28;8832;-59
2023/10/27 10:25:06;;;;;;;;;0.00;0.00;;;;;12.18;82.53;97489.19;5072302;28;8840;-57
2023/10/27 10:27:34;;;;;;;;;0.00;0.00;;;;;12.17;82.66;97492.88;5072581;28;8851;-56
2023/10/27 10:30:02;;;;;;;;;0.00;0.00;;;;;12.11;82.46;97491.81;5072052;28;8840;-56
2023/10/27 10:32:31;;;;;;;;;0.00;0.00;;;;;12.05;82.58;97489.06;5072511;28;8929;-58
2023/10/27 10:34:59;;;;;;;;;0.00;0.00;;;;;12.02;82.68;97489.44;5072529;28;8851;-57
2023/10/27 10:37:27;;;;;;;;;0.00;0.00;;;;;11.98;82.45;97501.50;5072945;28;8832;-57
2023/10/27 10:39:55;;;;;;;;;0.00;0.00;;;;;11.97;82.98;97497.19;5071729;28;8859;-58
2023/10/27 10:42:23;;;;;;;;;0.75;0.75;;;;;11.95;82.79;97492.03;5072298;28;8828;-56
2023/10/27 10:44:51;;;;;;;;;4.50;4.00;;;;;11.94;82.92;97505.59;5072371;28;8852;-55
2023/10/27 10:47:25;;;;;;;;;1.00;1.00;;;;;11.92;82.62;97493.44;5072373;28;8820;-58
2023/10/27 10:49:53;;;;;;;;;0.00;0.00;;;;;11.90;82.64;97498.97;5072134;28;8828;-57
2023/10/27 10:52:22;;;;;;;;;0.00;0.00;;;;;11.89;82.63;97491.97;5072698;28;8843;-57
2023/10/27 10:54:50;;;;;;;;;0.00;0.00;;;;;11.93;82.56;97498.59;5071795;28;9646;-59
2023/10/27 10:57:18;;;;;;;;;0.00;0.00;;;;;11.93;82.90;97496.75;5072892;28;8924;-56
2023/10/27 10:59:46;;;;;;;;;0.25;0.25;;;;;11.97;82.70;97494.53;5071550;28;8893;-56
2023/10/27 11:02:16;;;;;;;;;0.00;0.00;;;;;12.00;83.05;97496.81;5072331;28;8866;-57
2023/10/27 11:04:44;;;;;;;;;0.00;0.00;;;;;12.02;82.91;97492.94;5072626;28;8849;-57
2023/10/27 11:07:14;;;;;;;;;0.50;0.50;;;;;12.04;82.77;97490.06;5072340;28;8825;-56
2023/10/27 11:09:43;;;;;;;;;1.00;1.00;;;;;12.05;83.15;97491.72;5074257;28;8978;-56
2023/10/27 11:12:12;;;;;;;;;1.50;1.50;;;;;12.09;82.69;97493.00;5075392;28;8848;-56
2023/10/27 11:14:39;;;;;;;;;1.00;1.00;;;;;12.17;82.84;97495.53;5075530;28;8933;-56
2023/10/27 11:17:11;;;;;;;;;0.00;0.00;;;;;12.27;82.03;97493.34;5075623;28;8832;-56
2023/10/27 11:19:39;;;;;;;;;2.50;0.00;;;;;12.35;82.07;97499.41;5075040;28;8820;-57
2023/10/27 11:22:08;;;;;;;;;0.50;0.50;;;;;12.41;82.24;97495.97;5075230;28;8895;-58
2023/10/27 11:24:36;;;;;;;;;0.00;0.00;;;;;12.43;81.87;97490.41;5075959;28;8834;-56
2023/10/27 11:27:07;;;;;;;;;1.00;0.00;;;;;12.43;82.23;97488.56;5076069;28;8844;-56
2023/10/27 11:29:35;;;;;;;;;0.00;0.00;;;;;12.43;81.80;97485.06;5075692;28;8887;-58
2023/10/27 11:32:05;;;;;;;;;0.50;0.00;;;;;12.46;82.25;97490.03;5075013;28;8974;-56
2023/10/27 11:34:33;;;;;;;;;1.00;1.00;;;;;12.52;81.59;97494.59;5074919;28;8865;-59
2023/10/27 11:37:07;;;;;;;;;1.00;1.00;;;;;12.58;82.08;97499.16;5075335;28;8848;-57
2023/10/27 11:39:37;;;;;;;;;0.50;0.50;;;;;12.61;81.53;97493.44;5074841;28;8958;-58
2023/10/27 11:42:04;;;;;;;;;0.00;0.00;;;;;12.57;81.69;97498.34;5074903;28;8820;-56
2023/10/27 11:44:33;;;;;;;;;1.00;1.00;;;;;12.63;81.90;97496.72;5074917;28;8864;-58
2023/10/27 11:47:01;;;;;;;;;0.50;0.00;;;;;12.65;81.97;97498.19;5074488;28;8922;-58